sensor_id;sensor_type;location;lat;lon;timestamp;temperature;humidity
12632;DHT22;6381;45.748;12.106;2022-07-06T00:01:43;22.40;99.90
12632;DHT22;6381;45.748;12.106;2022-07-06T00:04:13;22.30;99.90
12632;DHT22;6381;45.748;12.106;2022-07-06T00:06:42;22.10;99.90
12632;DHT22;6381;45.748;12.106;2022-07-06T00:09:13;22.20;99.90
12632;DHT22;6381;45.748;12.106;2022-07-06T00:11:42;22.20;99.90
12632;DHT22;6381;45.748;12.106;2022-07-06T00:14:12;22.30;99.90
12632;DHT22;6381;45.748;12.106;2022-07-06T00:16:41;22.60;99.90
12632;DHT22;6381;45.748;12.106;2022-07-06T00:19:10;22.30;99.90
12632;DHT22;6381;45.748;12.106;2022-07-06T00:21:40;22.00;99.90
12632;DHT22;6381;45.748;12.106;2022-07-06T00:24:09;22.00;99.90
12632;DHT22;6381;45.748;12.106;2022-07-06T00:26:40;22.10;99.90
12632;DHT22;6381;45.748;12.106;2022-07-06T00:29:09;22.20;99.90
12632;DHT22;6381;45.748;12.106;2022-07-06T00:31:40;22.30;99.90
12632;DHT22;6381;45.748;12.106;2022-07-06T00:34:09;22.30;99.90
12632;DHT22;6381;45.748;12.106;2022-07-06T00:36:40;22.50;99.90
12632;DHT22;6381;45.748;12.106;2022-07-06T00:39:09;22.00;99.90
12632;DHT22;6381;45.748;12.106;2022-07-06T00:41:40;22.00;99.90
12632;DHT22;6381;45.748;12.106;2022-07-06T00:44:09;22.50;99.90
12632;DHT22;6381;45.748;12.106;2022-07-06T00:46:38;22.60;99.90
12632;DHT22;6381;45.748;12.106;2022-07-06T00:49:08;22.70;99.90
12632;DHT22;6381;45.748;12.106;2022-07-06T00:51:57;22.60;99.90
12632;DHT22;6381;45.748;12.106;2022-07-06T00:54:30;22.40;99.90
12632;DHT22;6381;45.748;12.106;2022-07-06T00:57:01;22.50;99.90
12632;DHT22;6381;45.748;12.106;2022-07-06T00:59:31;22.80;99.90
12632;DHT22;6381;45.748;12.106;2022-07-06T01:02:00;22.80;99.90
12632;DHT22;6381;45.748;12.106;2022-07-06T01:04:29;22.80;99.90
12632;DHT22;6381;45.748;12.106;2022-07-06T01:06:59;22.90;99.90
12632;DHT22;6381;45.748;12.106;2022-07-06T01:09:28;22.80;99.90
12632;DHT22;6381;45.748;12.106;2022-07-06T01:11:57;22.70;99.90
12632;DHT22;6381;45.748;12.106;2022-07-06T01:14:28;22.40;99.90
12632;DHT22;6381;45.748;12.106;2022-07-06T01:16:58;22.40;99.90
12632;DHT22;6381;45.748;12.106;2022-07-06T01:19:27;22.90;99.90
12632;DHT22;6381;45.748;12.106;2022-07-06T01:21:58;23.00;99.90
12632;DHT22;6381;45.748;12.106;2022-07-06T01:24:27;23.00;99.90
12632;DHT22;6381;45.748;12.106;2022-07-06T01:26:56;23.00;99.90
12632;DHT22;6381;45.748;12.106;2022-07-06T01:29:26;23.10;99.90
12632;DHT22;6381;45.748;12.106;2022-07-06T01:31:55;23.10;99.90
12632;DHT22;6381;45.748;12.106;2022-07-06T01:34:26;23.20;99.90
12632;DHT22;6381;45.748;12.106;2022-07-06T01:36:55;22.90;99.90
12632;DHT22;6381;45.748;12.106;2022-07-06T01:39:26;22.90;99.90
12632;DHT22;6381;45.748;12.106;2022-07-06T01:41:55;23.00;99.90
12632;DHT22;6381;45.748;12.106;2022-07-06T01:44:24;23.10;99.90
12632;DHT22;6381;45.748;12.106;2022-07-06T01:46:53;23.10;99.90
12632;DHT22;6381;45.748;12.106;2022-07-06T01:49:22;23.00;99.90
12632;DHT22;6381;45.748;12.106;2022-07-06T01:51:51;23.00;99.90
12632;DHT22;6381;45.748;12.106;2022-07-06T01:54:24;22.90;99.90
12632;DHT22;6381;45.748;12.106;2022-07-06T01:56:53;22.90;99.90
12632;DHT22;6381;45.748;12.106;2022-07-06T01:59:22;23.00;99.90
12632;DHT22;6381;45.748;12.106;2022-07-06T02:01:52;23.00;99.90
12632;DHT22;6381;45.748;12.106;2022-07-06T02:04:22;23.10;99.90
12632;DHT22;6381;45.748;12.106;2022-07-06T02:06:52;23.10;99.90
12632;DHT22;6381;45.748;12.106;2022-07-06T02:09:21;23.10;99.90
12632;DHT22;6381;45.748;12.106;2022-07-06T02:11:51;23.10;99.90
12632;DHT22;6381;45.748;12.106;2022-07-06T02:14:21;23.00;99.90
12632;DHT22;6381;45.748;12.106;2022-07-06T02:16:50;23.10;99.90
12632;DHT22;6381;45.748;12.106;2022-07-06T02:19:19;23.00;99.90
12632;DHT22;6381;45.748;12.106;2022-07-06T02:21:48;23.20;99.90
12632;DHT22;6381;45.748;12.106;2022-07-06T02:24:17;23.20;99.90
12632;DHT22;6381;45.748;12.106;2022-07-06T02:26:47;23.40;99.90
12632;DHT22;6381;45.748;12.106;2022-07-06T02:29:18;23.20;99.90
12632;DHT22;6381;45.748;12.106;2022-07-06T02:31:48;23.30;99.90
12632;DHT22;6381;45.748;12.106;2022-07-06T02:34:17;23.40;99.90
12632;DHT22;6381;45.748;12.106;2022-07-06T02:36:47;23.30;99.90
12632;DHT22;6381;45.748;12.106;2022-07-06T02:39:17;23.20;99.90
12632;DHT22;6381;45.748;12.106;2022-07-06T02:41:47;23.30;99.90
12632;DHT22;6381;45.748;12.106;2022-07-06T02:44:17;23.20;99.90
12632;DHT22;6381;45.748;12.106;2022-07-06T02:46:46;23.20;99.90
12632;DHT22;6381;45.748;12.106;2022-07-06T02:49:15;23.30;99.90
12632;DHT22;6381;45.748;12.106;2022-07-06T02:51:45;23.30;99.90
12632;DHT22;6381;45.748;12.106;2022-07-06T02:54:15;23.20;99.90
12632;DHT22;6381;45.748;12.106;2022-07-06T02:56:44;23.10;99.90
12632;DHT22;6381;45.748;12.106;2022-07-06T02:59:20;23.00;99.90
12632;DHT22;6381;45.748;12.106;2022-07-06T03:01:50;23.00;99.90
12632;DHT22;6381;45.748;12.106;2022-07-06T03:04:20;23.00;99.90
12632;DHT22;6381;45.748;12.106;2022-07-06T03:06:49;22.90;99.90
12632;DHT22;6381;45.748;12.106;2022-07-06T03:09:19;22.90;99.90
12632;DHT22;6381;45.748;12.106;2022-07-06T03:11:48;22.80;99.90
12632;DHT22;6381;45.748;12.106;2022-07-06T03:14:17;22.50;99.90
12632;DHT22;6381;45.748;12.106;2022-07-06T03:16:50;22.80;99.90
12632;DHT22;6381;45.748;12.106;2022-07-06T03:19:20;22.90;99.90
12632;DHT22;6381;45.748;12.106;2022-07-06T03:21:49;23.10;99.90
12632;DHT22;6381;45.748;12.106;2022-07-06T03:24:19;22.90;99.90
12632;DHT22;6381;45.748;12.106;2022-07-06T03:26:48;22.80;99.90
12632;DHT22;6381;45.748;12.106;2022-07-06T03:29:18;22.90;99.90
12632;DHT22;6381;45.748;12.106;2022-07-06T03:31:51;22.70;99.90
12632;DHT22;6381;45.748;12.106;2022-07-06T03:34:21;22.60;99.90
12632;DHT22;6381;45.748;12.106;2022-07-06T03:36:52;22.50;99.90
12632;DHT22;6381;45.748;12.106;2022-07-06T03:39:22;22.50;99.90
12632;DHT22;6381;45.748;12.106;2022-07-06T03:41:53;22.70;99.90
12632;DHT22;6381;45.748;12.106;2022-07-06T03:44:22;22.80;99.90
12632;DHT22;6381;45.748;12.106;2022-07-06T03:46:53;23.00;99.90
12632;DHT22;6381;45.748;12.106;2022-07-06T03:49:24;23.10;99.90
12632;DHT22;6381;45.748;12.106;2022-07-06T03:51:58;23.10;99.90
12632;DHT22;6381;45.748;12.106;2022-07-06T03:54:31;23.00;99.90
12632;DHT22;6381;45.748;12.106;2022-07-06T03:57:00;23.80;99.90
12632;DHT22;6381;45.748;12.106;2022-07-06T03:59:30;22.80;99.90
12632;DHT22;6381;45.748;12.106;2022-07-06T04:02:02;22.90;99.90
12632;DHT22;6381;45.748;12.106;2022-07-06T04:04:33;22.90;99.90
12632;DHT22;6381;45.748;12.106;2022-07-06T04:07:03;22.90;99.90
12632;DHT22;6381;45.748;12.106;2022-07-06T04:09:32;22.80;99.90
12632;DHT22;6381;45.748;12.106;2022-07-06T04:12:02;22.80;99.90
12632;DHT22;6381;45.748;12.106;2022-07-06T04:14:31;22.90;99.90
12632;DHT22;6381;45.748;12.106;2022-07-06T04:17:05;22.90;99.90
12632;DHT22;6381;45.748;12.106;2022-07-06T04:19:49;23.00;99.90
12632;DHT22;6381;45.748;12.106;2022-07-06T04:22:19;23.00;99.90
12632;DHT22;6381;45.748;12.106;2022-07-06T04:24:48;23.20;99.90
12632;DHT22;6381;45.748;12.106;2022-07-06T04:27:17;23.10;99.90
12632;DHT22;6381;45.748;12.106;2022-07-06T04:29:46;23.20;99.90
12632;DHT22;6381;45.748;12.106;2022-07-06T04:32:17;23.30;99.90
12632;DHT22;6381;45.748;12.106;2022-07-06T04:34:52;23.30;99.90
12632;DHT22;6381;45.748;12.106;2022-07-06T04:37:22;23.40;99.90
12632;DHT22;6381;45.748;12.106;2022-07-06T04:39:51;23.50;99.90
12632;DHT22;6381;45.748;12.106;2022-07-06T04:42:21;23.60;99.90
12632;DHT22;6381;45.748;12.106;2022-07-06T04:44:50;23.70;99.90
12632;DHT22;6381;45.748;12.106;2022-07-06T04:47:22;23.80;99.90
12632;DHT22;6381;45.748;12.106;2022-07-06T04:49:51;23.80;99.90
12632;DHT22;6381;45.748;12.106;2022-07-06T04:52:21;23.80;99.90
12632;DHT22;6381;45.748;12.106;2022-07-06T04:54:50;23.80;99.90
12632;DHT22;6381;45.748;12.106;2022-07-06T04:57:19;24.10;99.90
12632;DHT22;6381;45.748;12.106;2022-07-06T04:59:49;24.40;99.90
12632;DHT22;6381;45.748;12.106;2022-07-06T05:02:18;24.30;99.90
12632;DHT22;6381;45.748;12.106;2022-07-06T05:04:49;24.40;99.90
12632;DHT22;6381;45.748;12.106;2022-07-06T05:07:20;24.40;99.90
12632;DHT22;6381;45.748;12.106;2022-07-06T05:09:49;24.50;99.90
12632;DHT22;6381;45.748;12.106;2022-07-06T05:12:20;24.50;99.90
12632;DHT22;6381;45.748;12.106;2022-07-06T05:14:49;24.50;99.90
12632;DHT22;6381;45.748;12.106;2022-07-06T05:17:20;24.50;99.90
12632;DHT22;6381;45.748;12.106;2022-07-06T05:19:58;24.60;99.90
12632;DHT22;6381;45.748;12.106;2022-07-06T05:22:33;24.60;99.90
12632;DHT22;6381;45.748;12.106;2022-07-06T05:25:10;24.80;99.90
12632;DHT22;6381;45.748;12.106;2022-07-06T05:27:39;24.90;99.90
12632;DHT22;6381;45.748;12.106;2022-07-06T05:30:09;24.90;99.90
12632;DHT22;6381;45.748;12.106;2022-07-06T05:32:39;25.10;99.90
12632;DHT22;6381;45.748;12.106;2022-07-06T05:35:10;25.10;99.90
12632;DHT22;6381;45.748;12.106;2022-07-06T05:38:01;25.00;99.90
12632;DHT22;6381;45.748;12.106;2022-07-06T05:40:31;25.10;99.90
12632;DHT22;6381;45.748;12.106;2022-07-06T05:43:00;25.10;99.90
12632;DHT22;6381;45.748;12.106;2022-07-06T05:45:29;25.40;99.90
12632;DHT22;6381;45.748;12.106;2022-07-06T05:47:59;25.60;99.90
12632;DHT22;6381;45.748;12.106;2022-07-06T05:50:46;25.50;99.80
12632;DHT22;6381;45.748;12.106;2022-07-06T05:53:16;25.60;99.70
12632;DHT22;6381;45.748;12.106;2022-07-06T05:55:50;25.70;99.90
12632;DHT22;6381;45.748;12.106;2022-07-06T05:58:21;25.80;99.90
12632;DHT22;6381;45.748;12.106;2022-07-06T06:00:54;25.70;98.60
12632;DHT22;6381;45.748;12.106;2022-07-06T06:03:23;25.80;99.50
12632;DHT22;6381;45.748;12.106;2022-07-06T06:05:54;25.90;99.30
12632;DHT22;6381;45.748;12.106;2022-07-06T06:08:24;25.80;97.10
12632;DHT22;6381;45.748;12.106;2022-07-06T06:10:55;25.80;97.40
12632;DHT22;6381;45.748;12.106;2022-07-06T06:13:26;25.90;97.60
12632;DHT22;6381;45.748;12.106;2022-07-06T06:15:55;25.90;97.60
12632;DHT22;6381;45.748;12.106;2022-07-06T06:18:24;26.00;96.80
12632;DHT22;6381;45.748;12.106;2022-07-06T06:20:55;26.00;96.50
12632;DHT22;6381;45.748;12.106;2022-07-06T06:23:25;26.10;96.30
12632;DHT22;6381;45.748;12.106;2022-07-06T06:25:54;26.10;95.60
12632;DHT22;6381;45.748;12.106;2022-07-06T06:28:23;26.10;95.10
12632;DHT22;6381;45.748;12.106;2022-07-06T06:30:53;26.20;95.80
12632;DHT22;6381;45.748;12.106;2022-07-06T06:33:22;26.30;95.60
12632;DHT22;6381;45.748;12.106;2022-07-06T06:35:53;26.30;95.00
12632;DHT22;6381;45.748;12.106;2022-07-06T06:38:24;26.10;94.90
12632;DHT22;6381;45.748;12.106;2022-07-06T06:40:55;26.30;95.70
12632;DHT22;6381;45.748;12.106;2022-07-06T06:43:25;26.40;95.20
12632;DHT22;6381;45.748;12.106;2022-07-06T06:46:14;26.50;95.30
12632;DHT22;6381;45.748;12.106;2022-07-06T06:48:43;26.30;94.70
12632;DHT22;6381;45.748;12.106;2022-07-06T06:51:13;26.50;94.70
12632;DHT22;6381;45.748;12.106;2022-07-06T06:53:43;26.50;95.20
12632;DHT22;6381;45.748;12.106;2022-07-06T06:56:12;26.60;95.00
12632;DHT22;6381;45.748;12.106;2022-07-06T06:58:42;26.60;94.70
12632;DHT22;6381;45.748;12.106;2022-07-06T07:01:31;26.60;94.40
12632;DHT22;6381;45.748;12.106;2022-07-06T07:04:00;26.70;93.80
12632;DHT22;6381;45.748;12.106;2022-07-06T07:06:29;26.70;94.90
12632;DHT22;6381;45.748;12.106;2022-07-06T07:09:00;26.60;94.10
12632;DHT22;6381;45.748;12.106;2022-07-06T07:11:30;26.60;94.40
12632;DHT22;6381;45.748;12.106;2022-07-06T07:13:59;26.80;94.10
12632;DHT22;6381;45.748;12.106;2022-07-06T07:16:29;26.90;93.90
12632;DHT22;6381;45.748;12.106;2022-07-06T07:18:58;26.90;93.20
12632;DHT22;6381;45.748;12.106;2022-07-06T07:21:27;26.90;93.20
12632;DHT22;6381;45.748;12.106;2022-07-06T07:23:57;27.00;92.90
12632;DHT22;6381;45.748;12.106;2022-07-06T07:26:27;27.00;92.70
12632;DHT22;6381;45.748;12.106;2022-07-06T07:28:56;26.90;92.30
12632;DHT22;6381;45.748;12.106;2022-07-06T07:31:25;27.00;91.70
12632;DHT22;6381;45.748;12.106;2022-07-06T07:33:55;27.10;91.50
12632;DHT22;6381;45.748;12.106;2022-07-06T07:36:27;27.10;91.70
12632;DHT22;6381;45.748;12.106;2022-07-06T07:38:56;27.30;91.80
12632;DHT22;6381;45.748;12.106;2022-07-06T07:41:27;27.30;91.70
12632;DHT22;6381;45.748;12.106;2022-07-06T07:43:56;27.40;91.90
12632;DHT22;6381;45.748;12.106;2022-07-06T07:46:25;27.50;91.90
12632;DHT22;6381;45.748;12.106;2022-07-06T07:48:55;27.50;90.30
12632;DHT22;6381;45.748;12.106;2022-07-06T07:51:24;27.30;89.60
12632;DHT22;6381;45.748;12.106;2022-07-06T07:53:54;27.40;90.40
12632;DHT22;6381;45.748;12.106;2022-07-06T07:56:23;27.40;90.90
12632;DHT22;6381;45.748;12.106;2022-07-06T07:58:53;27.50;90.40
12632;DHT22;6381;45.748;12.106;2022-07-06T08:01:28;27.40;88.40
12632;DHT22;6381;45.748;12.106;2022-07-06T08:03:57;27.40;87.30
12632;DHT22;6381;45.748;12.106;2022-07-06T08:06:26;27.70;88.60
12632;DHT22;6381;45.748;12.106;2022-07-06T08:08:56;27.90;86.60
12632;DHT22;6381;45.748;12.106;2022-07-06T08:11:25;27.80;86.30
12632;DHT22;6381;45.748;12.106;2022-07-06T08:13:55;27.80;83.80
12632;DHT22;6381;45.748;12.106;2022-07-06T08:16:25;27.90;86.00
12632;DHT22;6381;45.748;12.106;2022-07-06T08:18:54;28.00;85.90
12632;DHT22;6381;45.748;12.106;2022-07-06T08:21:24;28.20;85.90
12632;DHT22;6381;45.748;12.106;2022-07-06T08:23:55;28.20;83.70
12632;DHT22;6381;45.748;12.106;2022-07-06T08:26:24;28.20;82.80
12632;DHT22;6381;45.748;12.106;2022-07-06T08:28:55;28.40;80.80
12632;DHT22;6381;45.748;12.106;2022-07-06T08:31:24;28.30;80.70
12632;DHT22;6381;45.748;12.106;2022-07-06T08:34:14;28.30;82.40
12632;DHT22;6381;45.748;12.106;2022-07-06T08:36:44;28.40;81.70
12632;DHT22;6381;45.748;12.106;2022-07-06T08:39:13;28.30;79.80
12632;DHT22;6381;45.748;12.106;2022-07-06T08:41:42;28.50;83.40
12632;DHT22;6381;45.748;12.106;2022-07-06T08:44:17;28.50;80.10
12632;DHT22;6381;45.748;12.106;2022-07-06T08:46:47;28.60;80.50
12632;DHT22;6381;45.748;12.106;2022-07-06T08:49:18;28.40;79.30
12632;DHT22;6381;45.748;12.106;2022-07-06T08:51:49;28.60;79.70
12632;DHT22;6381;45.748;12.106;2022-07-06T08:54:20;28.70;76.70
12632;DHT22;6381;45.748;12.106;2022-07-06T08:56:51;28.80;73.80
12632;DHT22;6381;45.748;12.106;2022-07-06T08:59:21;28.70;79.10
12632;DHT22;6381;45.748;12.106;2022-07-06T09:01:51;28.60;79.80
12632;DHT22;6381;45.748;12.106;2022-07-06T09:04:23;28.90;77.40
12632;DHT22;6381;45.748;12.106;2022-07-06T09:06:54;28.60;74.80
12632;DHT22;6381;45.748;12.106;2022-07-06T09:09:24;28.90;76.90
12632;DHT22;6381;45.748;12.106;2022-07-06T09:11:53;28.90;74.90
12632;DHT22;6381;45.748;12.106;2022-07-06T09:14:31;29.00;76.30
12632;DHT22;6381;45.748;12.106;2022-07-06T09:17:04;29.10;76.10
12632;DHT22;6381;45.748;12.106;2022-07-06T09:19:45;28.80;71.70
12632;DHT22;6381;45.748;12.106;2022-07-06T09:22:26;28.90;72.70
12632;DHT22;6381;45.748;12.106;2022-07-06T09:25:02;29.30;75.60
12632;DHT22;6381;45.748;12.106;2022-07-06T09:27:32;29.00;70.60
12632;DHT22;6381;45.748;12.106;2022-07-06T09:30:08;29.00;73.90
12632;DHT22;6381;45.748;12.106;2022-07-06T09:32:39;29.20;73.40
12632;DHT22;6381;45.748;12.106;2022-07-06T09:35:19;29.30;71.20
12632;DHT22;6381;45.748;12.106;2022-07-06T09:38:00;29.40;69.00
12632;DHT22;6381;45.748;12.106;2022-07-06T09:40:31;29.50;69.40
12632;DHT22;6381;45.748;12.106;2022-07-06T09:43:14;29.40;68.00
12632;DHT22;6381;45.748;12.106;2022-07-06T09:45:46;29.40;69.10
12632;DHT22;6381;45.748;12.106;2022-07-06T09:48:18;28.90;65.70
12632;DHT22;6381;45.748;12.106;2022-07-06T09:50:50;28.90;66.20
12632;DHT22;6381;45.748;12.106;2022-07-06T09:53:21;29.40;69.60
12632;DHT22;6381;45.748;12.106;2022-07-06T09:55:53;29.70;67.20
12632;DHT22;6381;45.748;12.106;2022-07-06T09:58:23;29.70;66.70
12632;DHT22;6381;45.748;12.106;2022-07-06T10:01:25;29.80;65.60
12632;DHT22;6381;45.748;12.106;2022-07-06T10:03:55;29.60;64.30
12632;DHT22;6381;45.748;12.106;2022-07-06T10:06:25;29.80;62.20
12632;DHT22;6381;45.748;12.106;2022-07-06T10:08:55;29.80;61.50
12632;DHT22;6381;45.748;12.106;2022-07-06T10:11:28;29.60;61.30
12632;DHT22;6381;45.748;12.106;2022-07-06T10:13:58;29.70;64.80
12632;DHT22;6381;45.748;12.106;2022-07-06T10:16:31;29.80;62.50
12632;DHT22;6381;45.748;12.106;2022-07-06T10:19:02;30.30;63.40
12632;DHT22;6381;45.748;12.106;2022-07-06T10:21:36;30.50;64.00
12632;DHT22;6381;45.748;12.106;2022-07-06T10:24:06;30.60;68.40
12632;DHT22;6381;45.748;12.106;2022-07-06T10:26:36;30.80;66.00
12632;DHT22;6381;45.748;12.106;2022-07-06T10:29:06;30.60;57.10
12632;DHT22;6381;45.748;12.106;2022-07-06T10:31:40;30.70;57.80
12632;DHT22;6381;45.748;12.106;2022-07-06T10:34:12;30.70;57.40
12632;DHT22;6381;45.748;12.106;2022-07-06T10:36:43;30.50;59.30
12632;DHT22;6381;45.748;12.106;2022-07-06T10:39:12;30.00;60.50
12632;DHT22;6381;45.748;12.106;2022-07-06T10:41:59;29.90;60.00
12632;DHT22;6381;45.748;12.106;2022-07-06T10:44:28;30.00;60.80
12632;DHT22;6381;45.748;12.106;2022-07-06T10:46:59;29.90;62.00
12632;DHT22;6381;45.748;12.106;2022-07-06T10:49:28;30.10;60.90
12632;DHT22;6381;45.748;12.106;2022-07-06T10:52:17;30.10;62.60
12632;DHT22;6381;45.748;12.106;2022-07-06T10:54:47;29.90;60.70
12632;DHT22;6381;45.748;12.106;2022-07-06T10:57:16;30.00;64.60
12632;DHT22;6381;45.748;12.106;2022-07-06T11:00:01;30.40;63.60
12632;DHT22;6381;45.748;12.106;2022-07-06T11:02:38;30.70;61.80
12632;DHT22;6381;45.748;12.106;2022-07-06T11:05:11;30.80;62.90
12632;DHT22;6381;45.748;12.106;2022-07-06T11:07:49;30.80;59.30
12632;DHT22;6381;45.748;12.106;2022-07-06T11:10:23;30.70;59.80
12632;DHT22;6381;45.748;12.106;2022-07-06T11:12:58;31.10;62.20
12632;DHT22;6381;45.748;12.106;2022-07-06T11:15:47;31.40;60.30
12632;DHT22;6381;45.748;12.106;2022-07-06T11:18:20;31.40;59.90
12632;DHT22;6381;45.748;12.106;2022-07-06T11:21:17;31.60;61.00
12632;DHT22;6381;45.748;12.106;2022-07-06T11:23:48;31.40;59.10
12632;DHT22;6381;45.748;12.106;2022-07-06T11:26:18;31.20;60.50
12632;DHT22;6381;45.748;12.106;2022-07-06T11:28:48;31.30;57.50
12632;DHT22;6381;45.748;12.106;2022-07-06T11:31:17;31.30;58.00
12632;DHT22;6381;45.748;12.106;2022-07-06T11:33:48;31.50;60.30
12632;DHT22;6381;45.748;12.106;2022-07-06T11:36:18;31.40;58.70
12632;DHT22;6381;45.748;12.106;2022-07-06T11:38:49;31.50;58.60
12632;DHT22;6381;45.748;12.106;2022-07-06T11:41:18;31.30;58.20
12632;DHT22;6381;45.748;12.106;2022-07-06T11:43:48;31.40;57.90
12632;DHT22;6381;45.748;12.106;2022-07-06T11:46:23;30.70;59.30
12632;DHT22;6381;45.748;12.106;2022-07-06T11:48:55;30.90;57.00
12632;DHT22;6381;45.748;12.106;2022-07-06T11:51:25;31.00;56.60
12632;DHT22;6381;45.748;12.106;2022-07-06T11:53:56;31.60;57.40
12632;DHT22;6381;45.748;12.106;2022-07-06T11:56:27;31.20;54.40
12632;DHT22;6381;45.748;12.106;2022-07-06T11:59:01;31.00;55.40
12632;DHT22;6381;45.748;12.106;2022-07-06T12:01:31;31.10;57.00
12632;DHT22;6381;45.748;12.106;2022-07-06T12:04:02;31.30;55.40
12632;DHT22;6381;45.748;12.106;2022-07-06T12:06:32;31.70;58.40
12632;DHT22;6381;45.748;12.106;2022-07-06T12:09:09;32.10;56.80
12632;DHT22;6381;45.748;12.106;2022-07-06T12:11:39;32.60;61.10
12632;DHT22;6381;45.748;12.106;2022-07-06T12:14:16;32.20;57.70
12632;DHT22;6381;45.748;12.106;2022-07-06T12:16:47;31.80;58.00
12632;DHT22;6381;45.748;12.106;2022-07-06T12:19:21;31.60;57.70
12632;DHT22;6381;45.748;12.106;2022-07-06T12:21:51;32.00;57.30
12632;DHT22;6381;45.748;12.106;2022-07-06T12:24:22;32.60;56.10
12632;DHT22;6381;45.748;12.106;2022-07-06T12:26:53;32.80;58.00
12632;DHT22;6381;45.748;12.106;2022-07-06T12:29:22;32.20;54.40
12632;DHT22;6381;45.748;12.106;2022-07-06T12:31:53;31.90;53.60
12632;DHT22;6381;45.748;12.106;2022-07-06T12:34:25;32.10;53.60
12632;DHT22;6381;45.748;12.106;2022-07-06T12:36:56;32.90;57.30
12632;DHT22;6381;45.748;12.106;2022-07-06T12:39:41;33.50;57.90
12632;DHT22;6381;45.748;12.106;2022-07-06T12:42:13;33.00;52.40
12632;DHT22;6381;45.748;12.106;2022-07-06T12:44:48;31.80;51.70
12632;DHT22;6381;45.748;12.106;2022-07-06T12:47:19;31.60;51.20
12632;DHT22;6381;45.748;12.106;2022-07-06T12:50:05;31.90;51.10
12632;DHT22;6381;45.748;12.106;2022-07-06T12:52:34;32.30;53.30
12632;DHT22;6381;45.748;12.106;2022-07-06T12:55:05;32.30;49.70
12632;DHT22;6381;45.748;12.106;2022-07-06T12:57:46;32.00;49.30
12632;DHT22;6381;45.748;12.106;2022-07-06T13:00:16;32.00;49.20
12632;DHT22;6381;45.748;12.106;2022-07-06T13:02:47;31.80;49.00
12632;DHT22;6381;45.748;12.106;2022-07-06T13:05:38;31.80;48.10
12632;DHT22;6381;45.748;12.106;2022-07-06T13:08:08;32.10;50.20
12632;DHT22;6381;45.748;12.106;2022-07-06T13:10:37;32.30;48.00
12632;DHT22;6381;45.748;12.106;2022-07-06T13:13:09;32.50;49.80
12632;DHT22;6381;45.748;12.106;2022-07-06T13:15:41;33.40;47.60
12632;DHT22;6381;45.748;12.106;2022-07-06T13:18:10;33.30;47.80
12632;DHT22;6381;45.748;12.106;2022-07-06T13:20:41;33.30;46.00
12632;DHT22;6381;45.748;12.106;2022-07-06T13:23:11;32.60;46.00
12632;DHT22;6381;45.748;12.106;2022-07-06T13:25:40;33.20;46.90
12632;DHT22;6381;45.748;12.106;2022-07-06T13:28:09;33.70;47.60
12632;DHT22;6381;45.748;12.106;2022-07-06T13:30:38;33.80;45.90
12632;DHT22;6381;45.748;12.106;2022-07-06T13:33:08;34.00;46.20
12632;DHT22;6381;45.748;12.106;2022-07-06T13:35:38;33.30;44.70
12632;DHT22;6381;45.748;12.106;2022-07-06T13:38:08;33.90;46.10
12632;DHT22;6381;45.748;12.106;2022-07-06T13:40:41;33.90;45.10
12632;DHT22;6381;45.748;12.106;2022-07-06T13:43:10;33.40;44.10
12632;DHT22;6381;45.748;12.106;2022-07-06T13:45:40;33.50;45.00
12632;DHT22;6381;45.748;12.106;2022-07-06T13:48:09;33.40;44.80
12632;DHT22;6381;45.748;12.106;2022-07-06T13:50:38;33.50;44.90
12632;DHT22;6381;45.748;12.106;2022-07-06T13:53:09;34.80;44.10
12632;DHT22;6381;45.748;12.106;2022-07-06T13:55:39;33.90;46.30
12632;DHT22;6381;45.748;12.106;2022-07-06T13:58:08;34.40;46.70
12632;DHT22;6381;45.748;12.106;2022-07-06T14:00:37;34.70;45.10
12632;DHT22;6381;45.748;12.106;2022-07-06T14:03:09;34.80;44.70
12632;DHT22;6381;45.748;12.106;2022-07-06T14:05:38;34.90;44.30
12632;DHT22;6381;45.748;12.106;2022-07-06T14:08:09;35.70;42.90
12632;DHT22;6381;45.748;12.106;2022-07-06T14:10:38;34.80;44.70
12632;DHT22;6381;45.748;12.106;2022-07-06T14:13:07;35.50;45.90
12632;DHT22;6381;45.748;12.106;2022-07-06T14:15:36;36.10;46.20
12632;DHT22;6381;45.748;12.106;2022-07-06T14:18:05;36.80;46.70
12632;DHT22;6381;45.748;12.106;2022-07-06T14:20:35;36.90;44.00
12632;DHT22;6381;45.748;12.106;2022-07-06T14:23:04;36.00;46.00
12632;DHT22;6381;45.748;12.106;2022-07-06T14:25:35;35.40;44.10
12632;DHT22;6381;45.748;12.106;2022-07-06T14:28:04;36.10;44.70
12632;DHT22;6381;45.748;12.106;2022-07-06T14:30:33;36.30;44.10
12632;DHT22;6381;45.748;12.106;2022-07-06T14:33:04;36.10;44.90
12632;DHT22;6381;45.748;12.106;2022-07-06T14:35:35;36.00;43.90
12632;DHT22;6381;45.748;12.106;2022-07-06T14:38:05;36.20;48.40
12632;DHT22;6381;45.748;12.106;2022-07-06T14:40:36;36.60;43.80
12632;DHT22;6381;45.748;12.106;2022-07-06T14:43:05;36.50;45.00
12632;DHT22;6381;45.748;12.106;2022-07-06T14:45:34;36.50;46.20
12632;DHT22;6381;45.748;12.106;2022-07-06T14:48:04;35.90;42.50
12632;DHT22;6381;45.748;12.106;2022-07-06T14:50:34;36.10;42.30
12632;DHT22;6381;45.748;12.106;2022-07-06T14:53:04;36.50;43.00
12632;DHT22;6381;45.748;12.106;2022-07-06T14:55:35;35.80;41.80
12632;DHT22;6381;45.748;12.106;2022-07-06T14:58:04;36.80;42.00
12632;DHT22;6381;45.748;12.106;2022-07-06T15:00:33;36.00;41.20
12632;DHT22;6381;45.748;12.106;2022-07-06T15:03:03;36.00;42.60
12632;DHT22;6381;45.748;12.106;2022-07-06T15:05:32;36.50;40.70
12632;DHT22;6381;45.748;12.106;2022-07-06T15:08:01;36.10;39.80
12632;DHT22;6381;45.748;12.106;2022-07-06T15:10:31;36.40;41.30
12632;DHT22;6381;45.748;12.106;2022-07-06T15:13:01;35.80;39.90
12632;DHT22;6381;45.748;12.106;2022-07-06T15:15:30;36.10;41.70
12632;DHT22;6381;45.748;12.106;2022-07-06T15:18:19;37.60;41.60
12632;DHT22;6381;45.748;12.106;2022-07-06T15:20:49;36.20;38.70
12632;DHT22;6381;45.748;12.106;2022-07-06T15:23:18;36.10;39.40
12632;DHT22;6381;45.748;12.106;2022-07-06T15:25:47;35.90;40.80
12632;DHT22;6381;45.748;12.106;2022-07-06T15:28:24;36.80;39.60
12632;DHT22;6381;45.748;12.106;2022-07-06T15:30:54;37.70;40.30
12632;DHT22;6381;45.748;12.106;2022-07-06T15:33:24;37.80;38.20
12632;DHT22;6381;45.748;12.106;2022-07-06T15:35:54;37.60;38.40
12632;DHT22;6381;45.748;12.106;2022-07-06T15:38:23;36.70;39.70
12632;DHT22;6381;45.748;12.106;2022-07-06T15:40:55;35.00;38.00
12632;DHT22;6381;45.748;12.106;2022-07-06T15:43:35;34.30;37.80
12632;DHT22;6381;45.748;12.106;2022-07-06T15:46:04;34.50;39.00
12632;DHT22;6381;45.748;12.106;2022-07-06T15:48:34;33.30;39.10
12632;DHT22;6381;45.748;12.106;2022-07-06T15:51:03;33.20;40.00
12632;DHT22;6381;45.748;12.106;2022-07-06T15:53:32;33.00;40.60
12632;DHT22;6381;45.748;12.106;2022-07-06T15:56:02;32.80;42.60